Time;durP1;ratioP1;P1;durP2;ratioP2;P2;SDS_P1;SDS_P2;PMS_P1;PMS_P2;Temp;Humidity;BMP_temperature;BMP_pressure;BME280_temperature;BME280_humidity;BME280_pressure;Samples;Min_cycle;Max_cycle;Signal;HPM_P1;HPM_P2
2022/07/19 00:00:01;;;;;;;2.83;2.58;;;;;;;20.57;50.89;95502.13;5116466;28;20250;-69
2022/07/19 00:02:28;;;;;;;2.83;2.63;;;;;;;20.57;51.15;95511.31;5114894;28;20199;-69
2022/07/19 00:04:54;;;;;;;2.60;2.42;;;;;;;20.54;50.96;95502.94;5115925;28;20184;-69
2022/07/19 00:07:23;;;;;;;3.40;2.40;;;;;;;20.49;51.38;95498.53;5115569;28;20245;-69
2022/07/19 00:09:50;;;;;;;3.10;2.80;;;;;;;20.41;51.49;95499.75;5115297;28;20214;-69
2022/07/19 00:12:17;;;;;;;4.55;3.00;;;;;;;20.34;51.87;95500.59;5115130;28;20199;-69
2022/07/19 00:14:46;;;;;;;3.08;2.88;;;;;;;20.33;51.85;95501.78;5115853;28;20207;-69
2022/07/19 00:17:13;;;;;;;3.38;2.50;;;;;;;20.31;51.97;95507.00;5114789;28;20195;-69
2022/07/19 00:19:40;;;;;;;3.95;2.90;;;;;;;20.37;51.43;95501.75;5115892;28;20187;-69
2022/07/19 00:22:09;;;;;;;3.10;2.80;;;;;;;20.35;52.15;95509.78;5115003;28;20200;-68
2022/07/19 00:24:36;;;;;;;3.00;2.80;;;;;;;20.34;51.57;95500.59;5115649;28;20187;-68
2022/07/19 00:27:03;;;;;;;2.88;2.50;;;;;;;20.34;51.89;95513.78;5114673;28;20203;-68
2022/07/19 00:29:30;;;;;;;3.20;3.00;;;;;;;20.28;51.85;95507.81;5115217;28;20184;-68
2022/07/19 00:31:58;;;;;;;3.20;3.00;;;;;;;20.30;52.08;95507.38;5115468;28;20214;-68
2022/07/19 00:34:25;;;;;;;3.38;2.97;;;;;;;20.23;52.39;95504.63;5114896;28;20257;-68
2022/07/19 00:36:53;;;;;;;3.47;3.17;;;;;;;20.22;52.33;95505.81;5114369;28;20524;-69
2022/07/19 00:39:20;;;;;;;3.38;3.08;;;;;;;20.22;52.36;95508.63;5115559;28;20188;-68
2022/07/19 00:41:47;;;;;;;3.97;3.10;;;;;;;20.17;52.42;95502.22;5116069;28;20561;-68
2022/07/19 00:44:13;;;;;;;3.67;3.38;;;;;;;20.12;52.95;95507.47;5119655;28;20192;-69
2022/07/19 00:46:40;;;;;;;4.53;3.00;;;;;;;20.14;52.32;95503.03;5118692;28;20198;-69
2022/07/19 00:49:08;;;;;;;2.97;2.78;;;;;;;20.17;53.03;95505.03;5119212;28;20265;-69
2022/07/19 00:51:39;;;;;;;3.38;3.00;;;;;;;20.11;52.89;95506.63;5120070;28;20198;-69
2022/07/19 00:54:07;;;;;;;2.92;2.67;;;;;;;20.13;53.00;95501.44;5118458;28;20237;-69
2022/07/19 00:56:34;;;;;;;3.40;3.10;;;;;;;20.15;53.04;95498.22;5119422;28;20192;-69
2022/07/19 00:59:03;;;;;;;4.32;3.17;;;;;;;20.15;52.93;95498.22;5119063;28;20214;-69
2022/07/19 01:01:31;;;;;;;3.92;2.95;;;;;;;20.12;53.13;95499.06;5117998;28;20211;-69
2022/07/19 01:03:58;;;;;;;3.10;2.80;;;;;;;20.05;52.95;95488.69;5118294;28;20188;-69
2022/07/19 01:06:26;;;;;;;3.03;2.80;;;;;;;20.01;53.53;95493.50;5119253;28;20187;-69
2022/07/19 01:08:53;;;;;;;3.50;3.10;;;;;;;19.94;53.49;95491.50;5118861;28;20184;-69
2022/07/19 01:11:20;;;;;;;3.00;2.70;;;;;;;19.94;53.44;95496.31;5119137;28;20184;-69
2022/07/19 01:13:49;;;;;;;3.00;2.80;;;;;;;19.87;53.56;95494.31;5117799;28;20207;-69
2022/07/19 01:16:16;;;;;;;3.85;2.72;;;;;;;19.86;53.80;95494.69;5119081;28;20203;-69
2022/07/19 01:18:43;;;;;;;3.13;2.63;;;;;;;19.85;53.87;95493.13;5118208;28;20260;-69
2022/07/19 01:21:18;;;;;;;3.25;2.83;;;;;;;19.84;54.02;95491.53;5118537;28;20215;-68
2022/07/19 01:23:45;;;;;;;2.95;2.65;;;;;;;19.82;53.57;95488.31;5117736;28;20563;-69
2022/07/19 01:26:12;;;;;;;3.00;2.70;;;;;;;19.85;53.86;95488.31;5118215;28;20191;-68
2022/07/19 01:28:39;;;;;;;5.22;2.90;;;;;;;19.86;53.86;95491.91;5117994;28;20200;-69
2022/07/19 01:31:06;;;;;;;3.33;3.03;;;;;;;19.78;54.07;95484.72;5117907;28;20183;-69
2022/07/19 01:33:33;;;;;;;3.20;2.63;;;;;;;19.80;54.27;95487.94;5118725;28;20192;-67
2022/07/19 01:35:59;;;;;;;3.92;2.60;;;;;;;19.80;53.97;95491.53;5118679;28;20260;-68
2022/07/19 01:38:28;;;;;;;3.33;2.50;;;;;;;19.84;53.88;95488.72;5118656;28;20208;-68
2022/07/19 01:40:55;;;;;;;2.80;2.60;;;;;;;19.84;53.82;95491.53;5118431;28;20211;-67
2022/07/19 01:43:22;;;;;;;2.72;2.50;;;;;;;19.83;53.88;95485.13;5118533;28;20241;-68
2022/07/19 01:45:48;;;;;;;2.45;2.25;;;;;;;19.86;53.40;95487.13;5118472;28;20184;-68
2022/07/19 01:48:16;;;;;;;5.03;2.50;;;;;;;19.89;53.44;95480.69;5117550;28;20192;-68
2022/07/19 01:50:42;;;;;;;2.90;2.50;;;;;;;19.90;53.37;95487.13;5117540;28;20191;-68
2022/07/19 01:53:09;;;;;;;2.75;2.55;;;;;;;19.90;53.26;95487.13;5116828;28;20239;-68
2022/07/19 01:55:38;;;;;;;4.43;2.47;;;;;;;19.90;53.63;95487.91;5117702;28;20200;-68
2022/07/19 01:58:05;;;;;;;2.67;2.30;;;;;;;19.88;53.69;95487.50;5118259;28;20331;-68
2022/07/19 02:00:32;;;;;;;2.60;2.40;;;;;;;19.87;53.32;95485.13;5117766;28;20643;-68
2022/07/19 02:02:59;;;;;;;2.30;2.20;;;;;;;19.85;53.75;95484.72;5117811;28;20188;-68
2022/07/19 02:05:26;;;;;;;2.95;2.60;;;;;;;19.82;53.98;95485.53;5118337;28;20180;-69
2022/07/19 02:07:52;;;;;;;2.63;2.42;;;;;;;19.81;54.39;95490.31;5117233;28;20269;-69
2022/07/19 02:10:19;;;;;;;3.17;2.20;;;;;;;19.80;54.07;95482.34;5116797;28;20196;-68
2022/07/19 02:12:48;;;;;;;4.00;2.40;;;;;;;19.79;53.72;95491.91;5117997;28;20195;-68
2022/07/19 02:15:14;;;;;;;2.30;2.10;;;;;;;19.79;53.86;95494.72;5117000;28;20207;-68
2022/07/19 02:17:41;;;;;;;3.05;2.60;;;;;;;19.79;53.94;95501.13;5116650;28;20184;-68
2022/07/19 02:20:09;;;;;;;2.75;2.17;;;;;;;19.77;54.13;95497.94;5117051;28;20195;-68
2022/07/19 02:22:35;;;;;;;3.83;2.40;;;;;;;19.73;54.58;95496.34;5117802;28;20210;-68
2022/07/19 02:25:03;;;;;;;3.75;2.50;;;;;;;19.71;54.78;95499.53;5117399;28;20184;-68
2022/07/19 02:27:30;;;;;;;2.53;2.33;;;;;;;19.70;54.54;95498.72;5117388;28;20247;-68
2022/07/19 02:29:58;;;;;;;3.45;2.50;;;;;;;19.69;54.25;95502.75;5116511;28;20208;-68
2022/07/19 02:32:25;;;;;;;2.42;2.22;;;;;;;19.70;54.39;95506.34;5116867;28;20195;-68
2022/07/19 02:34:53;;;;;;;4.55;2.67;;;;;;;19.65;54.47;95504.75;5117499;28;20252;-68
2022/07/19 02:37:19;;;;;;;2.75;2.38;;;;;;;19.63;54.69;95511.94;5117141;28;20195;-68
2022/07/19 02:39:46;;;;;;;2.85;2.50;;;;;;;19.59;54.97;95513.91;5117460;28;20184;-68
2022/07/19 02:42:13;;;;;;;4.30;2.75;;;;;;;19.57;54.98;95519.09;5117043;28;20226;-68
2022/07/19 02:44:40;;;;;;;3.90;2.75;;;;;;;19.57;54.71;95519.09;5117319;28;20493;-68
2022/07/19 02:47:08;;;;;;;3.78;2.70;;;;;;;19.54;54.76;95522.72;5117179;28;20199;-68
2022/07/19 02:49:35;;;;;;;3.42;2.83;;;;;;;19.47;55.05;95527.09;5117412;28;20184;-68
2022/07/19 02:52:02;;;;;;;3.33;3.03;;;;;;;19.44;54.88;95529.91;5116406;28;20199;-68
2022/07/19 02:54:29;;;;;;;2.83;2.63;;;;;;;19.41;54.91;95531.50;5116779;28;20238;-68
2022/07/19 02:56:56;;;;;;;5.03;3.10;;;;;;;19.40;54.77;95529.09;5116244;28;20199;-68
2022/07/19 02:59:22;;;;;;;4.57;3.30;;;;;;;19.38;55.00;95531.50;5116981;28;20184;-68
2022/07/19 03:01:49;;;;;;;4.38;3.05;;;;;;;19.37;55.10;95533.50;5116936;28;20196;-68
2022/07/19 03:04:17;;;;;;;3.05;2.40;;;;;;;19.38;54.83;95529.47;5116548;28;20184;-68
2022/07/19 03:06:44;;;;;;;2.78;2.50;;;;;;;19.41;54.66;95537.09;5116118;28;20191;-68
2022/07/19 03:09:11;;;;;;;2.75;2.53;;;;;;;19.40;54.72;95537.50;5116510;28;20638;-68
2022/07/19 03:11:38;;;;;;;3.88;2.70;;;;;;;19.39;54.87;95535.88;5117000;28;20253;-69
2022/07/19 03:14:05;;;;;;;4.90;3.05;;;;;;;19.37;55.05;95529.91;5116890;28;20199;-68
2022/07/19 03:16:32;;;;;;;4.68;3.15;;;;;;;19.33;55.01;95538.28;5115937;28;20188;-68
2022/07/19 03:18:59;;;;;;;4.45;3.42;;;;;;;19.29;55.38;95533.91;5116651;28;20269;-68
2022/07/19 03:21:27;;;;;;;4.30;3.75;;;;;;;19.21;55.18;95536.69;5116233;28;20639;-68
2022/07/19 03:23:54;;;;;;;3.95;3.60;;;;;;;19.13;55.54;95537.06;5116497;28;20191;-68
2022/07/19 03:26:20;;;;;;;4.53;3.92;;;;;;;19.08;55.57;95534.66;5115762;28;20192;-68
2022/07/19 03:28:47;;;;;;;4.55;4.15;;;;;;;19.05;55.49;95538.25;5115618;28;20192;-68
2022/07/19 03:31:14;;;;;;;5.45;3.75;;;;;;;19.04;55.70;95547.84;5116515;28;20195;-68
2022/07/19 03:33:40;;;;;;;5.47;3.92;;;;;;;19.00;55.88;95543.03;5115206;28;20219;-68
2022/07/19 03:36:08;;;;;;;3.63;3.33;;;;;;;18.99;55.94;95543.41;5116308;28;20206;-67
2022/07/19 03:38:36;;;;;;;4.38;3.90;;;;;;;19.01;56.11;95546.63;5115941;28;20603;-68
2022/07/19 03:41:03;;;;;;;4.10;3.35;;;;;;;19.00;56.29;95548.63;5116179;28;20206;-68
2022/07/19 03:43:29;;;;;;;5.07;3.45;;;;;;;18.98;56.24;95547.41;5116261;28;20183;-67
2022/07/19 03:45:56;;;;;;;4.15;3.75;;;;;;;18.97;56.30;95554.19;5116022;28;20195;-68
2022/07/19 03:48:23;;;;;;;6.10;3.70;;;;;;;18.94;56.30;95552.19;5115460;28;20198;-69
2022/07/19 03:50:50;;;;;;;5.07;3.40;;;;;;;18.91;56.35;95561.38;5114816;28;20195;-68
2022/07/19 03:53:17;;;;;;;4.07;3.20;;;;;;;18.91;56.39;95550.19;5114846;28;20246;-68
2022/07/19 03:55:45;;;;;;;4.78;3.63;;;;;;;18.95;56.38;95553.78;5115334;28;20264;-68
2022/07/19 03:58:11;;;;;;;5.53;3.10;;;;;;;18.97;56.45;95555.00;5115964;28;20172;-68
2022/07/19 04:00:39;;;;;;;3.70;3.13;;;;;;;18.99;56.48;95561.00;5115910;28;20191;-68
2022/07/19 04:03:05;;;;;;;4.18;2.67;;;;;;;19.03;56.39;95563.81;5114765;28;20583;-68
2022/07/19 04:05:32;;;;;;;4.60;3.15;;;;;;;19.04;56.34;95576.59;5115477;28;20202;-68
2022/07/19 04:07:59;;;;;;;4.10;3.30;;;;;;;19.04;56.47;95573.00;5115012;28;20179;-68
2022/07/19 04:10:26;;;;;;;3.95;3.65;;;;;;;18.99;56.63;95577.78;5115878;28;20191;-68
2022/07/19 04:12:54;;;;;;;5.20;3.70;;;;;;;18.96;56.67;95569.38;5115572;28;20233;-71
2022/07/19 04:15:21;;;;;;;4.45;3.55;;;;;;;18.93;56.86;95559.78;5116007;28;20196;-69
2022/07/19 04:17:48;;;;;;;4.38;3.90;;;;;;;18.91;56.82;95572.53;5114978;28;20183;-69
2022/07/19 04:20:15;;;;;;;5.22;3.95;;;;;;;18.86;56.94;95570.16;5115705;28;20191;-69
2022/07/19 04:22:42;;;;;;;3.92;3.53;;;;;;;18.82;56.95;95572.13;5114460;28;20220;-69
2022/07/19 04:25:10;;;;;;;4.45;4.05;;;;;;;18.79;57.26;95570.13;5115540;28;20195;-69
2022/07/19 04:27:37;;;;;;;4.07;3.63;;;;;;;18.79;57.58;95564.53;5114749;28;20203;-69
2022/07/19 04:30:06;;;;;;;3.90;3.60;;;;;;;18.80;57.86;95568.91;5115384;28;20585;-68
2022/07/19 04:32:33;;;;;;;4.65;3.75;;;;;;;18.81;58.22;95570.50;5114592;28;20192;-68
2022/07/19 04:35:00;;;;;;;4.22;3.83;;;;;;;18.82;57.98;95564.53;5113940;28;20320;-69
2022/07/19 04:37:27;;;;;;;6.10;4.72;;;;;;;18.84;57.73;95572.53;5115381;28;20183;-71
2022/07/19 04:39:54;;;;;;;4.60;4.10;;;;;;;18.88;57.65;95573.31;5115058;28;20192;-70
2022/07/19 04:42:21;;;;;;;5.68;3.60;;;;;;;18.90;58.42;95579.34;5114400;28;20222;-70
2022/07/19 04:44:48;;;;;;;4.30;3.67;;;;;;;18.89;57.86;95569.34;5115056;28;20508;-69
2022/07/19 04:47:17;;;;;;;4.80;3.65;;;;;;;18.90;58.00;95577.34;5114464;28;20196;-70
2022/07/19 04:49:44;;;;;;;4.13;3.50;;;;;;;18.93;58.65;95573.75;5114631;28;20214;-70
2022/07/19 04:52:11;;;;;;;4.32;3.40;;;;;;;18.95;58.20;95578.94;5115537;28;20180;-70
2022/07/19 04:54:38;;;;;;;4.30;3.42;;;;;;;18.96;58.26;95574.97;5115022;28;20252;-70
2022/07/19 04:57:05;;;;;;;5.78;3.30;;;;;;;18.96;58.84;95577.75;5114352;28;20202;-70
2022/07/19 04:59:31;;;;;;;3.67;3.25;;;;;;;18.98;58.59;95583.75;5114612;28;20268;-70
2022/07/19 05:01:58;;;;;;;4.63;3.30;;;;;;;19.01;58.28;95585.75;5114887;28;20211;-70
2022/07/19 05:04:27;;;;;;;4.78;3.33;;;;;;;19.05;58.32;95582.97;5114387;28;20316;-70
2022/07/19 05:06:56;;;;;;;3.28;2.97;;;;;;;19.08;58.25;95577.38;5115334;28;20188;-70
2022/07/19 05:09:23;;;;;;;4.43;3.15;;;;;;;19.11;57.98;95582.19;5114395;28;20204;-70
2022/07/19 05:11:51;;;;;;;4.70;3.88;;;;;;;19.17;58.13;95577.81;5115223;28;20198;-69
2022/07/19 05:14:18;;;;;;;4.45;3.80;;;;;;;19.18;58.40;95579.41;5115412;28;20207;-70
2022/07/19 05:16:44;;;;;;;5.90;3.58;;;;;;;19.22;58.40;95579.41;5114263;28;20196;-69
2022/07/19 05:19:12;;;;;;;6.65;3.67;;;;;;;19.30;58.03;95580.22;5115226;28;20249;-71
2022/07/19 05:21:40;;;;;;;4.95;3.20;;;;;;;19.33;58.32;95573.84;5115007;28;20214;-71
2022/07/19 05:24:07;;;;;;;4.53;2.85;;;;;;;19.37;58.22;95578.25;5115071;28;20188;-70
2022/07/19 05:26:35;;;;;;;5.75;3.42;;;;;;;19.47;59.06;95579.47;5114224;28;20196;-70
2022/07/19 05:29:02;;;;;;;4.15;3.05;;;;;;;19.69;58.62;95571.91;5116772;28;20195;-69
2022/07/19 05:31:29;;;;;;;3.97;2.78;;;;;;;19.98;58.21;95583.09;5118388;28;20207;-69
2022/07/19 05:33:56;;;;;;;8.73;3.03;;;;;;;20.03;58.47;95580.66;5118828;28;20223;-69
2022/07/19 05:36:23;;;;;;;5.22;3.35;;;;;;;20.40;57.47;95585.78;5117862;28;20268;-69
2022/07/19 05:38:52;;;;;;;7.88;3.05;;;;;;;20.60;55.54;95588.19;5117763;28;20204;-68
2022/07/19 05:41:21;;;;;;;5.95;3.00;;;;;;;20.45;55.66;95581.78;5118613;28;20198;-67
2022/07/19 05:43:48;;;;;;;2.90;2.70;;;;;;;20.34;55.52;95587.44;5117918;28;20219;-67
2022/07/19 05:46:15;;;;;;;3.45;3.15;;;;;;;20.28;56.60;95588.22;5117785;28;20260;-70
2022/07/19 05:48:42;;;;;;;4.68;3.58;;;;;;;20.58;55.86;95587.78;5118521;28;20192;-70
2022/07/19 05:51:09;;;;;;;4.15;3.00;;;;;;;20.87;55.26;95586.44;5118279;28;20180;-67
2022/07/19 05:53:36;;;;;;;5.05;2.85;;;;;;;21.01;54.27;95584.81;5118566;28;20243;-68
2022/07/19 05:56:05;;;;;;;3.30;3.05;;;;;;;21.06;53.93;95570.34;5117400;28;20566;-70
2022/07/19 05:58:32;;;;;;;5.50;2.95;;;;;;;21.02;54.16;95584.38;5117452;28;20211;-69
2022/07/19 06:03:43;;;;;;;14.07;3.25;;;;;;;20.80;54.35;95582.88;5103074;28;20321;-70
2022/07/19 06:06:10;;;;;;;3.78;3.08;;;;;;;20.58;55.40;95579.38;5117269;28;20196;-70
2022/07/19 06:08:37;;;;;;;3.22;2.92;;;;;;;20.37;55.31;95583.00;5117848;28;20200;-70
2022/07/19 06:11:05;;;;;;;4.72;3.30;;;;;;;20.28;56.45;95575.03;5118036;28;20191;-70
2022/07/19 06:13:32;;;;;;;5.07;3.30;;;;;;;20.29;57.22;95575.81;5117152;28;20306;-67
2022/07/19 06:15:59;;;;;;;4.00;3.20;;;;;;;20.26;57.03;95579.41;5118195;28;20183;-68
2022/07/19 06:18:26;;;;;;;3.72;3.08;;;;;;;20.20;56.77;95579.84;5117192;28;20207;-66
2022/07/19 06:20:54;;;;;;;4.88;3.08;;;;;;;20.10;56.11;95577.84;5117640;28;20176;-65
2022/07/19 06:23:21;;;;;;;3.97;3.03;;;;;;;20.04;57.03;95579.47;5117514;28;20212;-65
2022/07/19 06:25:47;;;;;;;4.35;2.90;;;;;;;20.00;57.52;95577.88;5117091;28;20229;-67
2022/07/19 06:28:16;;;;;;;3.75;2.95;;;;;;;19.96;57.37;95577.88;5117117;28;20199;-68
2022/07/19 06:30:42;;;;;;;4.18;3.10;;;;;;;19.99;58.15;95565.88;5117094;28;20210;-69
2022/07/19 06:33:09;;;;;;;4.80;3.47;;;;;;;20.04;58.06;95573.06;5116340;28;20196;-69
2022/07/19 06:35:36;;;;;;;3.75;3.03;;;;;;;20.08;57.55;95563.47;5116932;28;20555;-69
2022/07/19 06:38:03;;;;;;;3.95;3.10;;;;;;;20.12;57.91;95569.06;5100090;28;20199;-69
2022/07/19 06:40:30;;;;;;;3.85;3.45;;;;;;;20.14;56.87;95567.44;5116903;28;20190;-69
2022/07/19 06:42:57;;;;;;;3.78;2.95;;;;;;;20.13;57.02;95570.66;5117112;28;20223;-70
2022/07/19 06:45:25;;;;;;;4.05;3.50;;;;;;;20.14;57.85;95558.25;5117659;28;20183;-70
2022/07/19 06:47:52;;;;;;;4.80;3.47;;;;;;;20.17;56.17;95563.84;5116422;28;20188;-72
2022/07/19 06:50:19;;;;;;;3.30;3.10;;;;;;;20.18;56.77;95565.44;5116945;28;20216;-72
2022/07/19 06:52:46;;;;;;;4.07;3.25;;;;;;;20.20;57.27;95565.03;5117313;28;20187;-70
2022/07/19 06:55:13;;;;;;;5.47;3.17;;;;;;;20.24;57.22;95562.25;5117248;28;20240;-68
2022/07/19 06:57:40;;;;;;;3.05;2.85;;;;;;;20.33;54.98;95565.41;5117350;28;20260;-71
2022/07/19 07:00:09;;;;;;;4.53;2.95;;;;;;;20.34;57.23;95570.63;5117147;28;20187;-70
2022/07/19 07:02:38;;;;;;;3.67;3.15;;;;;;;20.37;56.08;95564.22;5117077;28;20212;-70
2022/07/19 07:05:05;;;;;;;6.10;3.15;;;;;;;20.37;56.46;95561.41;5116965;28;20238;-70
2022/07/19 07:07:33;;;;;;;3.38;3.05;;;;;;;20.44;56.71;95555.78;5117016;28;20230;-71
2022/07/19 07:10:01;;;;;;;4.20;3.00;;;;;;;20.59;56.29;95559.38;5117065;28;20179;-69
2022/07/19 07:12:28;;;;;;;3.17;2.72;;;;;;;20.73;55.81;95566.09;5117058;28;20191;-69
2022/07/19 07:14:55;;;;;;;3.47;3.15;;;;;;;20.78;55.02;95557.28;5116989;28;20268;-70
2022/07/19 07:17:22;;;;;;;3.25;2.78;;;;;;;20.76;54.06;95557.69;5116131;28;20198;-71
2022/07/19 07:19:50;;;;;;;5.30;3.17;;;;;;;20.73;55.08;95552.88;5116931;28;20203;-68
2022/07/19 07:22:17;;;;;;;6.80;3.22;;;;;;;20.95;55.36;95556.38;5115920;28;20223;-68
2022/07/19 07:24:44;;;;;;;4.13;3.05;;;;;;;21.09;54.94;95544.28;5116661;28;20252;-68
2022/07/19 07:27:11;;;;;;;5.28;2.90;;;;;;;21.32;54.26;95550.16;5115579;28;20195;-68
2022/07/19 07:29:38;;;;;;;3.10;2.80;;;;;;;21.43;51.46;95554.94;5116746;28;20183;-67
2022/07/19 07:32:05;;;;;;;3.08;2.80;;;;;;;21.51;52.47;95554.47;5115969;28;20207;-68
2022/07/19 07:34:32;;;;;;;3.20;2.90;;;;;;;21.53;50.64;95542.81;5116734;28;20191;-68
2022/07/19 07:37:00;;;;;;;2.90;2.60;;;;;;;21.55;52.96;95543.22;5116566;28;20183;-68
2022/07/19 07:39:27;;;;;;;4.47;2.67;;;;;;;21.71;51.93;95537.06;5116712;28;20198;-68
2022/07/19 07:41:54;;;;;;;5.07;2.90;;;;;;;21.67;51.07;95539.88;5116138;28;20623;-68
2022/07/19 07:44:21;;;;;;;4.03;2.85;;;;;;;21.69;47.90;95542.31;5116673;28;20203;-68
2022/07/19 07:46:47;;;;;;;2.33;2.10;;;;;;;21.77;49.97;95547.44;5116470;28;20191;-68
2022/07/19 07:49:14;;;;;;;3.38;2.35;;;;;;;21.81;48.75;95544.59;5115393;28;20200;-70
2022/07/19 07:51:41;;;;;;;2.55;2.10;;;;;;;21.77;47.98;95541.03;5114069;28;20196;-70
2022/07/19 07:54:10;;;;;;;3.83;2.83;;;;;;;21.79;48.56;95541.41;5116164;28;20235;-69
2022/07/19 07:56:36;;;;;;;3.30;2.83;;;;;;;21.81;47.50;95534.16;5116238;28;20192;-68
2022/07/19 07:59:03;;;;;;;4.10;2.60;;;;;;;21.93;48.74;95534.84;5116274;28;20211;-71
2022/07/19 08:01:30;;;;;;;4.85;2.47;;;;;;;22.06;45.06;95533.91;5115424;28;20200;-72
2022/07/19 08:03:57;;;;;;;2.90;2.30;;;;;;;22.02;45.15;95535.97;5115883;28;20631;-72
2022/07/19 08:06:24;;;;;;;3.90;2.70;;;;;;;22.00;43.82;95529.97;5115383;28;20511;-71
2022/07/19 08:08:51;;;;;;;4.47;2.28;;;;;;;21.94;46.28;95519.63;5115786;28;20180;-72
2022/07/19 08:11:19;;;;;;;4.55;2.40;;;;;;;22.00;47.27;95529.97;5114788;28;20672;-71
2022/07/19 08:13:46;;;;;;;3.45;2.20;;;;;;;22.10;45.16;95537.50;5115226;28;20247;-70
2022/07/19 08:16:12;;;;;;;3.30;2.60;;;;;;;22.23;43.47;95532.19;5115224;28;20199;-70
2022/07/19 08:18:39;;;;;;;2.90;2.28;;;;;;;22.22;44.14;95536.22;5115159;28;20212;-70
2022/07/19 08:21:06;;;;;;;7.40;2.70;;;;;;;22.26;45.25;95536.97;5114905;28;20199;-70
2022/07/19 08:23:33;;;;;;;3.63;2.50;;;;;;;22.32;43.74;95542.91;5116380;28;20207;-70
2022/07/19 08:26:00;;;;;;;3.47;2.40;;;;;;;22.39;43.96;95530.81;5114857;28;20646;-70
2022/07/19 08:28:28;;;;;;;3.10;2.53;;;;;;;22.35;41.07;95528.03;5115776;28;20191;-70
2022/07/19 08:30:55;;;;;;;2.70;2.50;;;;;;;22.31;41.45;95532.91;5114458;28;20225;-72
2022/07/19 08:33:22;;;;;;;2.92;2.53;;;;;;;22.34;43.08;95538.47;5115795;28;20213;-72
2022/07/19 08:35:48;;;;;;;3.35;2.35;;;;;;;22.39;44.69;95534.41;5115609;28;20546;-71
2022/07/19 08:38:15;;;;;;;2.60;2.40;;;;;;;22.54;43.18;95535.84;5115920;28;20184;-74
2022/07/19 08:40:43;;;;;;;2.88;2.60;;;;;;;22.59;40.55;95523.34;5115536;28;20196;-69
2022/07/19 08:43:10;;;;;;;6.40;2.60;;;;;;;22.62;41.59;95522.50;5115044;28;20216;-72
2022/07/19 08:45:41;;;;;;;3.15;2.35;;;;;;;22.68;41.80;95526.44;5116031;28;20241;-70
2022/07/19 08:48:08;;;;;;;3.78;2.33;;;;;;;22.77;40.05;95523.94;5115435;28;20168;-70
2022/07/19 08:50:35;;;;;;;3.20;2.65;;;;;;;22.82;39.98;95520.63;5114853;28;20198;-70
2022/07/19 08:53:02;;;;;;;6.90;2.80;;;;;;;22.91;40.32;95527.75;5114735;28;20535;-71
2022/07/19 08:55:29;;;;;;;3.13;2.75;;;;;;;22.96;39.45;95516.88;5114513;28;20206;-71
2022/07/19 08:57:57;;;;;;;5.90;3.92;;;;;;;23.00;40.72;95516.81;5116249;28;20180;-70
2022/07/19 09:00:24;;;;;;;7.07;5.00;;;;;;;23.06;41.52;95520.75;5115308;28;20206;-72
2022/07/19 09:02:54;;;;;;;4.60;3.75;;;;;;;23.08;40.72;95517.50;5116269;28;20500;-70
2022/07/19 09:05:21;;;;;;;2.70;2.45;;;;;;;23.12;39.70;95512.63;5119555;28;20180;-71
2022/07/19 09:08:01;;;;;;;2.45;2.25;;;;;;;23.16;38.58;95508.53;5118984;28;20188;-73
2022/07/19 09:10:28;;;;;;;3.53;3.22;;;;;;;23.20;40.34;95511.28;5119759;28;20561;-72
2022/07/19 09:12:59;;;;;;;2.97;2.47;;;;;;;23.27;38.78;95502.75;5119070;28;20180;-70
2022/07/19 09:15:45;;;;;;;4.20;2.90;;;;;;;23.30;39.89;95508.31;5119401;28;20196;-73
2022/07/19 09:18:15;;;;;;;2.88;2.40;;;;;;;23.41;38.90;95510.19;5118806;28;20286;-68
2022/07/19 09:20:42;;;;;;;4.32;2.85;;;;;;;23.45;40.42;95508.91;5118613;28;20208;-69
2022/07/19 09:23:09;;;;;;;2.50;2.30;;;;;;;23.55;38.91;95510.75;5118533;28;20219;-69
2022/07/19 09:25:38;;;;;;;2.67;2.47;;;;;;;23.61;38.23;95507.47;5118595;28;20562;-70
2022/07/19 09:28:05;;;;;;;3.03;2.80;;;;;;;23.66;36.43;95512.59;5118353;28;20199;-70
2022/07/19 09:30:38;;;;;;;3.38;2.35;;;;;;;23.66;38.03;95504.16;5118398;28;20206;-70
2022/07/19 09:33:10;;;;;;;3.20;2.50;;;;;;;23.80;37.13;95506.75;5118113;28;20192;-71
2022/07/19 09:35:40;;;;;;;2.55;2.35;;;;;;;23.86;36.24;95498.63;5119153;28;20194;-69
2022/07/19 09:38:25;;;;;;;2.55;2.40;;;;;;;23.90;37.96;95494.50;5118742;28;20228;-70
2022/07/19 09:40:54;;;;;;;4.30;3.33;;;;;;;23.94;38.60;95498.06;5119035;28;20202;-70
2022/07/19 09:43:22;;;;;;;2.80;2.60;;;;;;;24.07;37.33;95486.94;5119075;28;20207;-70
2022/07/19 09:45:49;;;;;;;4.38;2.65;;;;;;;24.15;37.29;95496.09;5116710;28;20203;-70
2022/07/19 09:48:16;;;;;;;2.80;2.60;;;;;;;24.25;38.61;95495.06;5118382;28;20191;-68
2022/07/19 09:50:48;;;;;;;3.08;2.78;;;;;;;24.32;37.47;95486.47;5118456;28;20198;-68
2022/07/19 09:53:15;;;;;;;3.58;2.70;;;;;;;24.42;36.85;95502.41;5117487;28;20288;-71
2022/07/19 09:55:42;;;;;;;2.95;2.63;;;;;;;24.47;36.72;95487.81;5117759;28;20199;-68
2022/07/19 09:58:09;;;;;;;3.03;2.83;;;;;;;24.52;36.90;95491.38;5118372;28;20215;-68
2022/07/19 10:00:38;;;;;;;2.90;2.42;;;;;;;24.53;36.81;95484.50;5118333;28;20176;-68
2022/07/19 10:03:07;;;;;;;3.30;2.78;;;;;;;24.58;38.23;95483.97;5117850;28;20521;-70
2022/07/19 10:05:34;;;;;;;2.58;2.38;;;;;;;24.77;36.58;95486.00;5118420;28;20202;-70
2022/07/19 10:08:02;;;;;;;2.85;2.60;;;;;;;24.81;36.04;95481.06;5117373;28;20195;-69
2022/07/19 10:13:13;;;;;;;2.90;2.70;;;;;;;24.84;36.48;95468.94;5117744;28;20176;-70
2022/07/19 10:15:44;;;;;;;2.92;2.72;;;;;;;24.72;36.24;95476.00;5116396;28;20493;-70
2022/07/19 10:18:13;;;;;;;3.25;2.90;;;;;;;24.61;36.63;95477.47;5117190;28;20303;-70
2022/07/19 10:20:43;;;;;;;3.80;3.47;;;;;;;24.50;36.65;95480.50;5117676;28;20188;-69
2022/07/19 10:23:11;;;;;;;4.68;3.22;;;;;;;24.39;38.54;95480.72;5117654;28;20603;-71
2022/07/19 10:25:44;;;;;;;3.20;2.80;;;;;;;24.44;38.74;95477.41;5117404;28;20207;-70
2022/07/19 10:28:30;;;;;;;4.22;3.20;;;;;;;24.50;36.98;95472.06;5117867;28;20195;-70
2022/07/19 10:30:57;;;;;;;5.47;3.00;;;;;;;24.43;38.70;95472.97;5117840;28;20187;-69
2022/07/19 10:33:33;;;;;;;4.32;2.67;;;;;;;24.43;38.69;95475.00;5117394;28;20560;-72
2022/07/19 10:36:34;;;;;;;5.55;3.03;;;;;;;24.47;38.48;95470.91;5117961;28;20241;-71
2022/07/19 10:39:26;;;;;;;3.38;2.92;;;;;;;24.53;39.24;95462.72;5116390;28;20192;-70
2022/07/19 10:42:09;;;;;;;9.23;3.70;;;;;;;24.64;38.31;95463.28;5117619;28;20584;-70
2022/07/19 10:44:37;;;;;;;5.38;4.25;;;;;;;24.72;35.89;95463.94;5118011;28;20265;-69
2022/07/19 10:47:04;;;;;;;4.85;3.60;;;;;;;24.70;36.44;95455.13;5117010;28;20199;-70
2022/07/19 10:49:44;;;;;;;3.13;2.80;;;;;;;24.62;36.94;95462.94;5117326;28;20180;-70
2022/07/19 10:52:35;;;;;;;4.28;3.10;;;;;;;24.58;38.05;95456.56;5116436;28;20199;-70
2022/07/19 10:55:28;;;;;;;4.13;2.90;;;;;;;24.60;37.79;95461.78;5116794;28;20301;-71
2022/07/19 10:58:11;;;;;;;3.90;2.80;;;;;;;24.64;37.85;95454.03;5111465;28;20223;-71
2022/07/19 11:00:42;;;;;;;3.47;2.65;;;;;;;24.66;38.17;95452.38;5116421;28;20195;-70
2022/07/19 11:03:28;;;;;;;2.80;2.60;;;;;;;24.80;39.10;95444.81;5116710;28;20595;-71
2022/07/19 11:05:56;;;;;;;6.60;5.80;;;;;;;24.92;38.08;95441.34;5116252;28;20205;-71
2022/07/19 11:08:32;;;;;;;6.25;5.75;;;;;;;25.05;37.48;95441.44;5116931;28;20205;-71
2022/07/19 11:11:05;;;;;;;3.78;3.47;;;;;;;25.10;37.93;95441.75;5116002;28;20234;-71
2022/07/19 11:13:32;;;;;;;5.18;4.35;;;;;;;25.10;37.12;95436.13;5116308;28;20287;-70
2022/07/19 11:16:00;;;;;;;3.08;2.88;;;;;;;25.30;38.37;95429.59;5115970;28;20219;-70
2022/07/19 11:18:27;;;;;;;5.03;2.80;;;;;;;25.49;35.81;95433.56;5115970;28;20191;-70
2022/07/19 11:20:57;;;;;;;6.20;3.58;;;;;;;25.39;37.29;95429.78;5116554;28;20259;-70
2022/07/19 11:23:24;;;;;;;3.42;3.08;;;;;;;25.25;35.99;95430.91;5116164;28;20196;-70
2022/07/19 11:25:52;;;;;;;3.22;3.03;;;;;;;25.18;35.38;95425.44;5116376;28;20195;-70
2022/07/19 11:28:24;;;;;;;4.65;3.42;;;;;;;25.07;37.33;95434.13;5115782;28;20248;-68
2022/07/19 11:30:51;;;;;;;4.45;3.38;;;;;;;24.98;37.74;95423.47;5115613;28;20256;-70
2022/07/19 11:33:19;;;;;;;4.57;3.00;;;;;;;24.93;37.42;95423.19;5115400;28;20196;-67
2022/07/19 11:35:57;;;;;;;5.95;2.97;;;;;;;24.86;37.43;95428.97;5116496;28;20176;-68
2022/07/19 11:38:23;;;;;;;7.93;3.63;;;;;;;24.80;37.33;95413.78;5115614;28;20195;-69
2022/07/19 11:40:50;;;;;;;6.78;3.70;;;;;;;24.75;36.59;95420.75;5116226;28;20192;-69
2022/07/19 11:43:17;;;;;;;4.00;3.60;;;;;;;24.72;37.56;95421.63;5115897;28;20183;-68